sensor_id;sensor_type;location;lat;lon;timestamp;P1;durP1;ratioP1;P2;durP2;ratioP2
29958;SDS011;16815;51.100;6.516;2023-04-06T00:00:35;16.00;;;9.97;;
29958;SDS011;16815;51.100;6.516;2023-04-06T00:03:01;16.23;;;9.57;;
29958;SDS011;16815;51.100;6.516;2023-04-06T00:05:27;13.90;;;9.17;;
29958;SDS011;16815;51.100;6.516;2023-04-06T00:07:55;11.63;;;8.37;;
29958;SDS011;16815;51.100;6.516;2023-04-06T00:10:21;20.70;;;10.50;;
29958;SDS011;16815;51.100;6.516;2023-04-06T00:12:47;20.07;;;10.90;;
29958;SDS011;16815;51.100;6.516;2023-04-06T00:15:13;17.90;;;9.50;;
29958;SDS011;16815;51.100;6.516;2023-04-06T00:17:39;24.50;;;10.47;;
29958;SDS011;16815;51.100;6.516;2023-04-06T00:20:05;21.90;;;9.40;;
29958;SDS011;16815;51.100;6.516;2023-04-06T00:22:31;21.53;;;10.33;;
29958;SDS011;16815;51.100;6.516;2023-04-06T00:24:57;23.10;;;9.93;;
29958;SDS011;16815;51.100;6.516;2023-04-06T00:27:23;18.37;;;10.30;;
29958;SDS011;16815;51.100;6.516;2023-04-06T00:29:49;25.00;;;10.07;;
29958;SDS011;16815;51.100;6.516;2023-04-06T00:32:15;27.67;;;11.37;;
29958;SDS011;16815;51.100;6.516;2023-04-06T00:34:41;22.70;;;10.37;;
29958;SDS011;16815;51.100;6.516;2023-04-06T00:37:07;35.40;;;11.07;;
29958;SDS011;16815;51.100;6.516;2023-04-06T00:39:33;29.20;;;10.67;;
29958;SDS011;16815;51.100;6.516;2023-04-06T00:42:00;23.30;;;10.20;;
29958;SDS011;16815;51.100;6.516;2023-04-06T00:44:27;37.43;;;9.87;;
29958;SDS011;16815;51.100;6.516;2023-04-06T00:46:53;34.30;;;11.20;;
29958;SDS011;16815;51.100;6.516;2023-04-06T00:49:19;26.13;;;10.27;;
29958;SDS011;16815;51.100;6.516;2023-04-06T00:51:45;27.60;;;10.33;;
29958;SDS011;16815;51.100;6.516;2023-04-06T00:54:11;28.30;;;10.87;;
29958;SDS011;16815;51.100;6.516;2023-04-06T00:56:37;29.27;;;10.53;;
29958;SDS011;16815;51.100;6.516;2023-04-06T00:59:03;30.40;;;9.70;;
29958;SDS011;16815;51.100;6.516;2023-04-06T01:01:29;30.13;;;11.60;;
29958;SDS011;16815;51.100;6.516;2023-04-06T01:03:57;23.47;;;10.10;;
29958;SDS011;16815;51.100;6.516;2023-04-06T01:06:23;34.33;;;10.70;;
29958;SDS011;16815;51.100;6.516;2023-04-06T01:08:49;32.37;;;11.30;;
29958;SDS011;16815;51.100;6.516;2023-04-06T01:11:15;39.13;;;10.87;;
29958;SDS011;16815;51.100;6.516;2023-04-06T01:13:41;41.53;;;12.10;;
29958;SDS011;16815;51.100;6.516;2023-04-06T01:16:07;45.33;;;12.23;;
29958;SDS011;16815;51.100;6.516;2023-04-06T01:18:34;44.07;;;12.57;;
29958;SDS011;16815;51.100;6.516;2023-04-06T01:21:01;37.27;;;11.80;;
29958;SDS011;16815;51.100;6.516;2023-04-06T01:23:27;35.57;;;12.47;;
29958;SDS011;16815;51.100;6.516;2023-04-06T01:25:53;35.63;;;12.50;;
29958;SDS011;16815;51.100;6.516;2023-04-06T01:28:19;39.47;;;14.03;;
29958;SDS011;16815;51.100;6.516;2023-04-06T01:30:45;35.60;;;13.20;;
29958;SDS011;16815;51.100;6.516;2023-04-06T01:33:11;29.23;;;12.27;;
29958;SDS011;16815;51.100;6.516;2023-04-06T01:35:37;32.03;;;13.40;;
29958;SDS011;16815;51.100;6.516;2023-04-06T01:38:03;36.13;;;13.17;;
29958;SDS011;16815;51.100;6.516;2023-04-06T01:40:29;33.27;;;13.47;;
29958;SDS011;16815;51.100;6.516;2023-04-06T01:42:55;49.03;;;13.30;;
29958;SDS011;16815;51.100;6.516;2023-04-06T01:45:21;32.17;;;13.43;;
29958;SDS011;16815;51.100;6.516;2023-04-06T01:47:47;32.83;;;14.57;;
29958;SDS011;16815;51.100;6.516;2023-04-06T01:50:13;34.30;;;14.73;;
29958;SDS011;16815;51.100;6.516;2023-04-06T01:52:39;36.17;;;14.43;;
29958;SDS011;16815;51.100;6.516;2023-04-06T01:55:05;28.90;;;13.77;;
29958;SDS011;16815;51.100;6.516;2023-04-06T01:57:31;35.10;;;14.27;;
29958;SDS011;16815;51.100;6.516;2023-04-06T01:59:58;27.30;;;14.73;;
29958;SDS011;16815;51.100;6.516;2023-04-06T02:02:24;32.90;;;13.07;;
29958;SDS011;16815;51.100;6.516;2023-04-06T02:04:50;27.07;;;13.00;;
29958;SDS011;16815;51.100;6.516;2023-04-06T02:07:16;32.03;;;13.57;;
29958;SDS011;16815;51.100;6.516;2023-04-06T02:09:42;30.10;;;14.20;;
29958;SDS011;16815;51.100;6.516;2023-04-06T02:12:08;34.10;;;14.10;;
29958;SDS011;16815;51.100;6.516;2023-04-06T02:14:34;33.53;;;14.47;;
29958;SDS011;16815;51.100;6.516;2023-04-06T02:17:00;31.97;;;13.87;;
29958;SDS011;16815;51.100;6.516;2023-04-06T02:19:26;32.17;;;14.40;;
29958;SDS011;16815;51.100;6.516;2023-04-06T02:21:52;29.13;;;12.70;;
29958;SDS011;16815;51.100;6.516;2023-04-06T02:24:18;33.73;;;13.33;;
29958;SDS011;16815;51.100;6.516;2023-04-06T02:26:44;33.10;;;14.17;;
29958;SDS011;16815;51.100;6.516;2023-04-06T02:29:10;26.33;;;12.77;;
29958;SDS011;16815;51.100;6.516;2023-04-06T02:31:36;29.37;;;14.53;;
29958;SDS011;16815;51.100;6.516;2023-04-06T02:34:02;23.97;;;12.77;;
29958;SDS011;16815;51.100;6.516;2023-04-06T02:36:28;28.40;;;13.87;;
29958;SDS011;16815;51.100;6.516;2023-04-06T02:38:54;23.97;;;13.27;;
29958;SDS011;16815;51.100;6.516;2023-04-06T02:41:20;24.33;;;13.50;;
29958;SDS011;16815;51.100;6.516;2023-04-06T02:43:46;20.67;;;11.93;;
29958;SDS011;16815;51.100;6.516;2023-04-06T02:46:12;19.63;;;11.97;;
29958;SDS011;16815;51.100;6.516;2023-04-06T02:48:38;14.87;;;11.57;;
29958;SDS011;16815;51.100;6.516;2023-04-06T02:51:04;17.30;;;11.77;;
29958;SDS011;16815;51.100;6.516;2023-04-06T02:53:30;19.80;;;12.70;;
29958;SDS011;16815;51.100;6.516;2023-04-06T02:55:56;19.10;;;12.17;;
29958;SDS011;16815;51.100;6.516;2023-04-06T02:58:22;17.53;;;12.00;;
29958;SDS011;16815;51.100;6.516;2023-04-06T03:00:48;21.60;;;12.33;;
29958;SDS011;16815;51.100;6.516;2023-04-06T03:03:14;19.80;;;12.07;;
29958;SDS011;16815;51.100;6.516;2023-04-06T03:05:40;18.47;;;11.97;;
29958;SDS011;16815;51.100;6.516;2023-04-06T03:08:06;18.57;;;11.23;;
29958;SDS011;16815;51.100;6.516;2023-04-06T03:10:32;14.50;;;10.97;;
29958;SDS011;16815;51.100;6.516;2023-04-06T03:12:58;16.47;;;11.53;;
29958;SDS011;16815;51.100;6.516;2023-04-06T03:15:24;18.87;;;10.97;;
29958;SDS011;16815;51.100;6.516;2023-04-06T03:17:51;17.47;;;11.17;;
29958;SDS011;16815;51.100;6.516;2023-04-06T03:20:16;19.60;;;11.67;;
29958;SDS011;16815;51.100;6.516;2023-04-06T03:22:42;14.87;;;11.30;;
29958;SDS011;16815;51.100;6.516;2023-04-06T03:25:08;16.63;;;12.37;;
29958;SDS011;16815;51.100;6.516;2023-04-06T03:27:34;21.03;;;12.13;;
29958;SDS011;16815;51.100;6.516;2023-04-06T03:30:01;20.47;;;12.73;;
29958;SDS011;16815;51.100;6.516;2023-04-06T03:32:27;15.17;;;10.80;;
29958;SDS011;16815;51.100;6.516;2023-04-06T03:34:53;16.40;;;10.83;;
29958;SDS011;16815;51.100;6.516;2023-04-06T03:37:19;22.47;;;12.37;;
29958;SDS011;16815;51.100;6.516;2023-04-06T03:39:45;18.70;;;11.37;;
29958;SDS011;16815;51.100;6.516;2023-04-06T03:42:11;18.77;;;11.90;;
29958;SDS011;16815;51.100;6.516;2023-04-06T03:44:37;21.83;;;12.30;;
29958;SDS011;16815;51.100;6.516;2023-04-06T03:47:03;18.23;;;11.63;;
29958;SDS011;16815;51.100;6.516;2023-04-06T03:49:29;24.00;;;12.07;;
29958;SDS011;16815;51.100;6.516;2023-04-06T03:51:56;22.00;;;12.53;;
29958;SDS011;16815;51.100;6.516;2023-04-06T03:54:22;21.77;;;11.10;;
29958;SDS011;16815;51.100;6.516;2023-04-06T03:56:48;21.53;;;11.80;;
29958;SDS011;16815;51.100;6.516;2023-04-06T03:59:14;18.83;;;11.03;;
29958;SDS011;16815;51.100;6.516;2023-04-06T04:01:40;25.00;;;11.43;;
29958;SDS011;16815;51.100;6.516;2023-04-06T04:04:06;14.90;;;10.47;;
29958;SDS011;16815;51.100;6.516;2023-04-06T04:06:32;16.13;;;10.17;;
29958;SDS011;16815;51.100;6.516;2023-04-06T04:08:58;19.23;;;12.83;;
29958;SDS011;16815;51.100;6.516;2023-04-06T04:11:24;17.87;;;11.67;;
29958;SDS011;16815;51.100;6.516;2023-04-06T04:13:50;20.20;;;11.90;;
29958;SDS011;16815;51.100;6.516;2023-04-06T04:16:16;17.13;;;11.67;;
29958;SDS011;16815;51.100;6.516;2023-04-06T04:18:42;16.00;;;11.40;;
29958;SDS011;16815;51.100;6.516;2023-04-06T04:21:08;20.37;;;12.37;;
29958;SDS011;16815;51.100;6.516;2023-04-06T04:23:34;14.40;;;11.17;;
29958;SDS011;16815;51.100;6.516;2023-04-06T04:26:00;19.67;;;12.73;;
29958;SDS011;16815;51.100;6.516;2023-04-06T04:28:26;21.07;;;12.93;;
29958;SDS011;16815;51.100;6.516;2023-04-06T04:30:52;19.47;;;13.33;;
29958;SDS011;16815;51.100;6.516;2023-04-06T04:33:18;21.10;;;12.33;;
29958;SDS011;16815;51.100;6.516;2023-04-06T04:35:44;19.53;;;12.47;;
29958;SDS011;16815;51.100;6.516;2023-04-06T04:38:10;15.73;;;11.80;;
29958;SDS011;16815;51.100;6.516;2023-04-06T04:40:36;20.67;;;12.10;;
29958;SDS011;16815;51.100;6.516;2023-04-06T04:43:02;22.10;;;12.40;;
29958;SDS011;16815;51.100;6.516;2023-04-06T04:45:28;20.13;;;11.93;;
29958;SDS011;16815;51.100;6.516;2023-04-06T04:47:54;21.23;;;12.43;;
29958;SDS011;16815;51.100;6.516;2023-04-06T04:50:20;22.97;;;12.47;;
29958;SDS011;16815;51.100;6.516;2023-04-06T04:52:46;19.47;;;11.43;;
29958;SDS011;16815;51.100;6.516;2023-04-06T04:55:12;15.20;;;11.03;;
29958;SDS011;16815;51.100;6.516;2023-04-06T04:57:39;17.07;;;11.47;;
29958;SDS011;16815;51.100;6.516;2023-04-06T05:00:05;20.47;;;12.13;;
29958;SDS011;16815;51.100;6.516;2023-04-06T05:02:31;15.63;;;10.27;;
29958;SDS011;16815;51.100;6.516;2023-04-06T05:04:57;19.20;;;11.50;;
29958;SDS011;16815;51.100;6.516;2023-04-06T05:07:23;17.40;;;11.73;;
29958;SDS011;16815;51.100;6.516;2023-04-06T05:09:49;16.67;;;12.03;;
29958;SDS011;16815;51.100;6.516;2023-04-06T05:12:15;21.53;;;11.50;;
29958;SDS011;16815;51.100;6.516;2023-04-06T05:14:41;18.67;;;11.77;;
29958;SDS011;16815;51.100;6.516;2023-04-06T05:17:07;20.83;;;12.30;;
29958;SDS011;16815;51.100;6.516;2023-04-06T05:19:34;17.13;;;12.10;;
29958;SDS011;16815;51.100;6.516;2023-04-06T05:21:59;21.13;;;12.83;;
29958;SDS011;16815;51.100;6.516;2023-04-06T05:24:25;17.03;;;11.83;;
29958;SDS011;16815;51.100;6.516;2023-04-06T05:26:51;21.93;;;11.63;;
29958;SDS011;16815;51.100;6.516;2023-04-06T05:29:18;18.90;;;12.20;;
29958;SDS011;16815;51.100;6.516;2023-04-06T05:31:45;15.80;;;11.37;;
29958;SDS011;16815;51.100;6.516;2023-04-06T05:34:11;17.17;;;11.73;;
29958;SDS011;16815;51.100;6.516;2023-04-06T05:36:37;17.23;;;11.17;;
29958;SDS011;16815;51.100;6.516;2023-04-06T05:39:03;18.33;;;11.23;;
29958;SDS011;16815;51.100;6.516;2023-04-06T05:41:29;14.73;;;11.10;;
29958;SDS011;16815;51.100;6.516;2023-04-06T05:43:55;17.00;;;10.57;;
29958;SDS011;16815;51.100;6.516;2023-04-06T05:46:21;16.30;;;11.17;;
29958;SDS011;16815;51.100;6.516;2023-04-06T05:48:50;17.83;;;11.00;;
29958;SDS011;16815;51.100;6.516;2023-04-06T05:51:16;16.27;;;11.53;;
29958;SDS011;16815;51.100;6.516;2023-04-06T05:53:42;15.70;;;10.83;;
29958;SDS011;16815;51.100;6.516;2023-04-06T05:56:08;16.40;;;10.90;;
29958;SDS011;16815;51.100;6.516;2023-04-06T05:58:34;15.97;;;10.60;;
29958;SDS011;16815;51.100;6.516;2023-04-06T06:01:00;18.93;;;11.53;;
29958;SDS011;16815;51.100;6.516;2023-04-06T06:03:27;19.77;;;12.53;;
29958;SDS011;16815;51.100;6.516;2023-04-06T06:05:58;18.17;;;11.73;;
29958;SDS011;16815;51.100;6.516;2023-04-06T06:08:24;17.13;;;12.17;;
29958;SDS011;16815;51.100;6.516;2023-04-06T06:10:50;19.77;;;11.87;;
29958;SDS011;16815;51.100;6.516;2023-04-06T06:13:16;21.60;;;12.83;;
29958;SDS011;16815;51.100;6.516;2023-04-06T06:15:42;17.10;;;12.07;;
29958;SDS011;16815;51.100;6.516;2023-04-06T06:18:08;19.30;;;11.80;;
29958;SDS011;16815;51.100;6.516;2023-04-06T06:20:35;19.93;;;11.77;;
29958;SDS011;16815;51.100;6.516;2023-04-06T06:23:01;18.40;;;11.37;;
29958;SDS011;16815;51.100;6.516;2023-04-06T06:25:28;14.37;;;10.70;;
29958;SDS011;16815;51.100;6.516;2023-04-06T06:27:55;17.27;;;11.47;;
29958;SDS011;16815;51.100;6.516;2023-04-06T06:30:21;19.43;;;11.60;;
29958;SDS011;16815;51.100;6.516;2023-04-06T06:32:47;17.90;;;10.93;;
29958;SDS011;16815;51.100;6.516;2023-04-06T06:35:13;16.23;;;11.50;;
29958;SDS011;16815;51.100;6.516;2023-04-06T06:37:39;18.33;;;11.70;;
29958;SDS011;16815;51.100;6.516;2023-04-06T06:40:06;15.70;;;10.77;;
29958;SDS011;16815;51.100;6.516;2023-04-06T06:42:32;15.40;;;10.53;;
29958;SDS011;16815;51.100;6.516;2023-04-06T06:44:58;15.57;;;11.23;;
29958;SDS011;16815;51.100;6.516;2023-04-06T06:47:24;16.30;;;11.17;;
29958;SDS011;16815;51.100;6.516;2023-04-06T06:49:51;17.87;;;11.03;;
29958;SDS011;16815;51.100;6.516;2023-04-06T06:52:17;18.67;;;11.13;;
29958;SDS011;16815;51.100;6.516;2023-04-06T06:54:43;21.60;;;11.73;;
29958;SDS011;16815;51.100;6.516;2023-04-06T06:57:09;21.47;;;13.17;;
29958;SDS011;16815;51.100;6.516;2023-04-06T06:59:35;20.30;;;12.60;;
29958;SDS011;16815;51.100;6.516;2023-04-06T07:02:01;17.80;;;11.83;;
29958;SDS011;16815;51.100;6.516;2023-04-06T07:04:27;16.33;;;11.70;;
29958;SDS011;16815;51.100;6.516;2023-04-06T07:06:53;20.07;;;12.23;;
29958;SDS011;16815;51.100;6.516;2023-04-06T07:09:19;18.00;;;10.97;;
29958;SDS011;16815;51.100;6.516;2023-04-06T07:11:45;17.60;;;10.97;;
29958;SDS011;16815;51.100;6.516;2023-04-06T07:14:11;16.60;;;10.50;;
29958;SDS011;16815;51.100;6.516;2023-04-06T07:16:38;16.57;;;10.50;;
29958;SDS011;16815;51.100;6.516;2023-04-06T07:19:07;15.87;;;10.53;;
29958;SDS011;16815;51.100;6.516;2023-04-06T07:21:34;13.70;;;10.07;;
29958;SDS011;16815;51.100;6.516;2023-04-06T07:24:00;16.33;;;10.60;;
29958;SDS011;16815;51.100;6.516;2023-04-06T07:26:26;18.10;;;11.80;;
29958;SDS011;16815;51.100;6.516;2023-04-06T07:28:52;16.43;;;10.83;;
29958;SDS011;16815;51.100;6.516;2023-04-06T07:31:18;14.07;;;10.70;;
29958;SDS011;16815;51.100;6.516;2023-04-06T07:33:45;13.67;;;10.77;;
29958;SDS011;16815;51.100;6.516;2023-04-06T07:36:11;14.13;;;10.17;;
29958;SDS011;16815;51.100;6.516;2023-04-06T07:38:37;17.70;;;10.67;;
29958;SDS011;16815;51.100;6.516;2023-04-06T07:41:03;14.87;;;11.17;;
29958;SDS011;16815;51.100;6.516;2023-04-06T07:43:30;14.83;;;10.83;;
29958;SDS011;16815;51.100;6.516;2023-04-06T07:45:56;16.00;;;10.37;;
29958;SDS011;16815;51.100;6.516;2023-04-06T07:48:22;13.03;;;10.43;;
29958;SDS011;16815;51.100;6.516;2023-04-06T07:50:48;15.67;;;10.87;;
29958;SDS011;16815;51.100;6.516;2023-04-06T07:53:15;15.67;;;10.80;;
29958;SDS011;16815;51.100;6.516;2023-04-06T07:55:41;15.23;;;10.67;;
29958;SDS011;16815;51.100;6.516;2023-04-06T07:58:06;15.57;;;10.50;;
29958;SDS011;16815;51.100;6.516;2023-04-06T08:00:32;16.70;;;10.03;;
29958;SDS011;16815;51.100;6.516;2023-04-06T08:02:58;16.47;;;10.83;;
29958;SDS011;16815;51.100;6.516;2023-04-06T08:05:24;11.70;;;10.17;;
29958;SDS011;16815;51.100;6.516;2023-04-06T08:07:51;15.97;;;10.47;;
29958;SDS011;16815;51.100;6.516;2023-04-06T08:10:29;19.60;;;11.40;;
29958;SDS011;16815;51.100;6.516;2023-04-06T08:12:55;13.97;;;10.33;;
29958;SDS011;16815;51.100;6.516;2023-04-06T08:15:21;14.53;;;11.30;;
29958;SDS011;16815;51.100;6.516;2023-04-06T08:17:47;14.73;;;10.63;;
29958;SDS011;16815;51.100;6.516;2023-04-06T08:20:13;15.67;;;10.20;;
29958;SDS011;16815;51.100;6.516;2023-04-06T08:22:39;20.00;;;10.90;;
29958;SDS011;16815;51.100;6.516;2023-04-06T08:25:05;16.30;;;11.00;;
29958;SDS011;16815;51.100;6.516;2023-04-06T08:27:31;14.30;;;10.90;;
29958;SDS011;16815;51.100;6.516;2023-04-06T08:29:57;14.00;;;10.10;;
29958;SDS011;16815;51.100;6.516;2023-04-06T08:32:23;16.37;;;11.00;;
29958;SDS011;16815;51.100;6.516;2023-04-06T08:34:52;18.60;;;10.63;;
29958;SDS011;16815;51.100;6.516;2023-04-06T08:37:18;14.43;;;10.60;;
29958;SDS011;16815;51.100;6.516;2023-04-06T08:39:44;14.17;;;9.77;;
29958;SDS011;16815;51.100;6.516;2023-04-06T08:42:16;16.03;;;10.83;;
29958;SDS011;16815;51.100;6.516;2023-04-06T08:44:44;14.30;;;10.70;;
29958;SDS011;16815;51.100;6.516;2023-04-06T08:47:11;15.63;;;10.10;;
29958;SDS011;16815;51.100;6.516;2023-04-06T08:49:37;15.00;;;10.47;;
29958;SDS011;16815;51.100;6.516;2023-04-06T08:52:05;13.40;;;10.83;;
29958;SDS011;16815;51.100;6.516;2023-04-06T08:54:32;17.03;;;11.13;;
29958;SDS011;16815;51.100;6.516;2023-04-06T08:56:58;13.53;;;10.23;;
29958;SDS011;16815;51.100;6.516;2023-04-06T08:59:25;14.93;;;10.53;;
29958;SDS011;16815;51.100;6.516;2023-04-06T09:01:51;14.33;;;10.50;;
29958;SDS011;16815;51.100;6.516;2023-04-06T09:04:17;15.33;;;11.30;;
29958;SDS011;16815;51.100;6.516;2023-04-06T09:06:43;15.47;;;11.50;;
29958;SDS011;16815;51.100;6.516;2023-04-06T09:09:09;18.43;;;10.93;;
29958;SDS011;16815;51.100;6.516;2023-04-06T09:11:46;16.37;;;11.50;;
29958;SDS011;16815;51.100;6.516;2023-04-06T09:14:12;18.03;;;11.20;;
29958;SDS011;16815;51.100;6.516;2023-04-06T09:16:41;15.73;;;11.43;;
29958;SDS011;16815;51.100;6.516;2023-04-06T09:19:08;19.20;;;11.87;;
29958;SDS011;16815;51.100;6.516;2023-04-06T09:21:35;16.30;;;11.47;;
29958;SDS011;16815;51.100;6.516;2023-04-06T09:24:02;16.93;;;11.60;;
29958;SDS011;16815;51.100;6.516;2023-04-06T09:26:28;19.03;;;11.40;;
29958;SDS011;16815;51.100;6.516;2023-04-06T09:28:55;16.13;;;11.67;;
29958;SDS011;16815;51.100;6.516;2023-04-06T09:31:22;16.20;;;10.90;;
29958;SDS011;16815;51.100;6.516;2023-04-06T09:33:50;17.90;;;11.60;;
29958;SDS011;16815;51.100;6.516;2023-04-06T09:36:17;15.90;;;11.00;;
29958;SDS011;16815;51.100;6.516;2023-04-06T09:41:25;17.57;;;10.20;;
29958;SDS011;16815;51.100;6.516;2023-04-06T09:43:51;16.77;;;10.73;;
29958;SDS011;16815;51.100;6.516;2023-04-06T09:46:18;15.50;;;10.10;;
29958;SDS011;16815;51.100;6.516;2023-04-06T09:48:47;16.57;;;11.00;;
29958;SDS011;16815;51.100;6.516;2023-04-06T09:51:13;15.47;;;9.90;;
29958;SDS011;16815;51.100;6.516;2023-04-06T09:53:40;18.33;;;10.40;;
29958;SDS011;16815;51.100;6.516;2023-04-06T09:56:07;15.63;;;10.90;;
29958;SDS011;16815;51.100;6.516;2023-04-06T09:58:36;18.17;;;10.23;;
29958;SDS011;16815;51.100;6.516;2023-04-06T10:01:04;19.53;;;10.27;;
29958;SDS011;16815;51.100;6.516;2023-04-06T10:03:38;16.87;;;9.23;;
29958;SDS011;16815;51.100;6.516;2023-04-06T10:06:08;15.67;;;9.73;;
29958;SDS011;16815;51.100;6.516;2023-04-06T10:08:36;14.73;;;10.40;;
29958;SDS011;16815;51.100;6.516;2023-04-06T10:11:05;19.90;;;11.10;;
29958;SDS011;16815;51.100;6.516;2023-04-06T10:13:31;15.87;;;10.60;;
29958;SDS011;16815;51.100;6.516;2023-04-06T10:15:57;15.73;;;10.30;;
29958;SDS011;16815;51.100;6.516;2023-04-06T10:18:26;23.93;;;14.53;;
29958;SDS011;16815;51.100;6.516;2023-04-06T10:21:04;18.50;;;12.37;;
29958;SDS011;16815;51.100;6.516;2023-04-06T10:23:45;21.27;;;14.40;;
29958;SDS011;16815;51.100;6.516;2023-04-06T10:26:13;17.17;;;11.53;;
29958;SDS011;16815;51.100;6.516;2023-04-06T10:28:40;14.87;;;10.67;;
29958;SDS011;16815;51.100;6.516;2023-04-06T10:31:07;20.17;;;10.87;;
29958;SDS011;16815;51.100;6.516;2023-04-06T10:33:33;18.40;;;10.73;;
29958;SDS011;16815;51.100;6.516;2023-04-06T10:36:11;19.00;;;10.77;;
29958;SDS011;16815;51.100;6.516;2023-04-06T10:38:38;21.47;;;10.30;;
29958;SDS011;16815;51.100;6.516;2023-04-06T10:41:08;19.23;;;13.83;;
29958;SDS011;16815;51.100;6.516;2023-04-06T10:43:35;24.13;;;14.77;;
29958;SDS011;16815;51.100;6.516;2023-04-06T10:46:02;18.50;;;11.87;;
29958;SDS011;16815;51.100;6.516;2023-04-06T10:51:07;19.80;;;11.67;;
29958;SDS011;16815;51.100;6.516;2023-04-06T10:53:33;18.43;;;12.37;;
29958;SDS011;16815;51.100;6.516;2023-04-06T10:55:59;16.53;;;10.43;;
29958;SDS011;16815;51.100;6.516;2023-04-06T10:58:26;19.23;;;11.13;;
29958;SDS011;16815;51.100;6.516;2023-04-06T11:00:53;16.67;;;10.07;;
29958;SDS011;16815;51.100;6.516;2023-04-06T11:03:20;17.93;;;11.97;;
29958;SDS011;16815;51.100;6.516;2023-04-06T11:05:50;18.63;;;10.20;;
29958;SDS011;16815;51.100;6.516;2023-04-06T11:08:25;14.53;;;9.73;;
29958;SDS011;16815;51.100;6.516;2023-04-06T11:10:52;22.67;;;10.20;;
29958;SDS011;16815;51.100;6.516;2023-04-06T11:13:18;16.97;;;9.60;;
29958;SDS011;16815;51.100;6.516;2023-04-06T11:15:44;13.40;;;9.10;;
29958;SDS011;16815;51.100;6.516;2023-04-06T11:18:10;16.07;;;9.70;;
29958;SDS011;16815;51.100;6.516;2023-04-06T11:20:36;15.40;;;9.27;;
29958;SDS011;16815;51.100;6.516;2023-04-06T11:23:02;15.63;;;10.10;;
29958;SDS011;16815;51.100;6.516;2023-04-06T11:25:28;13.80;;;9.80;;
29958;SDS011;16815;51.100;6.516;2023-04-06T11:27:57;17.70;;;10.90;;
29958;SDS011;16815;51.100;6.516;2023-04-06T11:30:23;14.87;;;10.73;;
29958;SDS011;16815;51.100;6.516;2023-04-06T11:32:49;15.10;;;9.53;;
29958;SDS011;16815;51.100;6.516;2023-04-06T11:35:22;18.37;;;9.13;;
29958;SDS011;16815;51.100;6.516;2023-04-06T11:37:49;12.33;;;8.33;;
29958;SDS011;16815;51.100;6.516;2023-04-06T11:40:15;14.33;;;8.10;;
29958;SDS011;16815;51.100;6.516;2023-04-06T11:42:41;13.47;;;8.20;;
29958;SDS011;16815;51.100;6.516;2023-04-06T11:45:09;16.73;;;9.00;;
29958;SDS011;16815;51.100;6.516;2023-04-06T11:47:41;11.80;;;8.30;;
29958;SDS011;16815;51.100;6.516;2023-04-06T11:52:33;9.40;;;7.47;;
29958;SDS011;16815;51.100;6.516;2023-04-06T11:55:09;14.87;;;8.67;;
29958;SDS011;16815;51.100;6.516;2023-04-06T11:57:35;11.23;;;8.63;;
29958;SDS011;16815;51.100;6.516;2023-04-06T12:00:01;11.60;;;7.40;;
29958;SDS011;16815;51.100;6.516;2023-04-06T12:02:27;14.90;;;7.13;;
29958;SDS011;16815;51.100;6.516;2023-04-06T12:04:53;9.33;;;6.13;;
29958;SDS011;16815;51.100;6.516;2023-04-06T12:07:20;12.37;;;5.87;;
29958;SDS011;16815;51.100;6.516;2023-04-06T12:09:45;12.33;;;6.20;;
29958;SDS011;16815;51.100;6.516;2023-04-06T12:12:11;13.73;;;7.20;;
29958;SDS011;16815;51.100;6.516;2023-04-06T12:14:37;11.57;;;6.00;;
29958;SDS011;16815;51.100;6.516;2023-04-06T12:17:03;9.57;;;6.53;;
29958;SDS011;16815;51.100;6.516;2023-04-06T12:19:29;10.27;;;6.13;;
29958;SDS011;16815;51.100;6.516;2023-04-06T12:21:56;8.17;;;6.20;;
29958;SDS011;16815;51.100;6.516;2023-04-06T12:24:22;7.30;;;6.13;;
29958;SDS011;16815;51.100;6.516;2023-04-06T12:26:49;7.97;;;5.47;;
29958;SDS011;16815;51.100;6.516;2023-04-06T12:29:15;8.10;;;6.00;;
29958;SDS011;16815;51.100;6.516;2023-04-06T12:31:41;6.90;;;5.90;;
29958;SDS011;16815;51.100;6.516;2023-04-06T12:34:09;8.87;;;6.33;;
29958;SDS011;16815;51.100;6.516;2023-04-06T12:36:36;10.30;;;6.40;;
29958;SDS011;16815;51.100;6.516;2023-04-06T12:39:02;8.23;;;6.83;;
29958;SDS011;16815;51.100;6.516;2023-04-06T12:41:28;10.07;;;6.10;;
29958;SDS011;16815;51.100;6.516;2023-04-06T12:43:54;12.53;;;6.83;;
29958;SDS011;16815;51.100;6.516;2023-04-06T12:46:21;7.40;;;5.20;;
29958;SDS011;16815;51.100;6.516;2023-04-06T12:48:47;9.83;;;4.80;;
29958;SDS011;16815;51.100;6.516;2023-04-06T12:51:13;9.30;;;4.90;;
29958;SDS011;16815;51.100;6.516;2023-04-06T12:53:39;11.93;;;5.47;;
29958;SDS011;16815;51.100;6.516;2023-04-06T12:56:15;7.77;;;5.63;;
29958;SDS011;16815;51.100;6.516;2023-04-06T12:58:42;6.70;;;5.60;;
29958;SDS011;16815;51.100;6.516;2023-04-06T13:01:08;9.37;;;6.57;;
29958;SDS011;16815;51.100;6.516;2023-04-06T13:03:36;7.30;;;6.50;;
29958;SDS011;16815;51.100;6.516;2023-04-06T13:06:02;9.73;;;6.90;;
29958;SDS011;16815;51.100;6.516;2023-04-06T13:08:28;10.07;;;6.43;;
29958;SDS011;16815;51.100;6.516;2023-04-06T13:10:54;6.77;;;5.73;;
29958;SDS011;16815;51.100;6.516;2023-04-06T13:13:25;8.97;;;6.63;;
29958;SDS011;16815;51.100;6.516;2023-04-06T13:15:51;8.00;;;6.20;;
29958;SDS011;16815;51.100;6.516;2023-04-06T13:18:17;7.40;;;5.87;;
29958;SDS011;16815;51.100;6.516;2023-04-06T13:20:44;6.83;;;6.07;;
29958;SDS011;16815;51.100;6.516;2023-04-06T13:23:10;7.73;;;6.33;;
29958;SDS011;16815;51.100;6.516;2023-04-06T13:25:36;7.20;;;5.97;;
29958;SDS011;16815;51.100;6.516;2023-04-06T13:28:02;8.37;;;6.03;;
29958;SDS011;16815;51.100;6.516;2023-04-06T13:30:28;7.97;;;6.57;;
29958;SDS011;16815;51.100;6.516;2023-04-06T13:32:54;8.33;;;7.07;;
29958;SDS011;16815;51.100;6.516;2023-04-06T13:35:20;7.97;;;6.53;;
29958;SDS011;16815;51.100;6.516;2023-04-06T13:37:46;8.23;;;6.37;;
29958;SDS011;16815;51.100;6.516;2023-04-06T13:40:13;8.77;;;6.20;;
29958;SDS011;16815;51.100;6.516;2023-04-06T13:42:39;10.67;;;6.83;;
29958;SDS011;16815;51.100;6.516;2023-04-06T13:45:08;8.73;;;6.93;;
29958;SDS011;16815;51.100;6.516;2023-04-06T13:47:35;9.40;;;7.43;;
29958;SDS011;16815;51.100;6.516;2023-04-06T13:50:01;10.00;;;7.40;;
29958;SDS011;16815;51.100;6.516;2023-04-06T13:52:28;9.60;;;7.53;;
29958;SDS011;16815;51.100;6.516;2023-04-06T13:54:54;8.80;;;7.27;;
29958;SDS011;16815;51.100;6.516;2023-04-06T13:57:20;9.83;;;7.33;;
29958;SDS011;16815;51.100;6.516;2023-04-06T13:59:46;10.57;;;7.57;;
29958;SDS011;16815;51.100;6.516;2023-04-06T14:02:14;8.23;;;7.17;;
29958;SDS011;16815;51.100;6.516;2023-04-06T14:04:40;8.13;;;6.80;;
29958;SDS011;16815;51.100;6.516;2023-04-06T14:07:06;9.47;;;7.43;;
29958;SDS011;16815;51.100;6.516;2023-04-06T14:09:32;8.13;;;6.97;;
29958;SDS011;16815;51.100;6.516;2023-04-06T14:11:58;8.90;;;6.67;;
29958;SDS011;16815;51.100;6.516;2023-04-06T14:14:25;8.63;;;6.80;;
29958;SDS011;16815;51.100;6.516;2023-04-06T14:16:51;8.53;;;7.27;;
29958;SDS011;16815;51.100;6.516;2023-04-06T14:19:17;9.90;;;7.87;;
29958;SDS011;16815;51.100;6.516;2023-04-06T14:21:44;9.47;;;7.77;;
29958;SDS011;16815;51.100;6.516;2023-04-06T14:24:10;12.50;;;8.50;;
29958;SDS011;16815;51.100;6.516;2023-04-06T14:26:37;9.57;;;7.30;;
29958;SDS011;16815;51.100;6.516;2023-04-06T14:29:06;8.70;;;7.13;;